Time;durP1;ratioP1;P1;durP2;ratioP2;P2;SDS_P1;SDS_P2;PMS_P1;PMS_P2;Temp;Humidity;BMP_temperature;BMP_pressure;BME280_temperature;BME280_humidity;BME280_pressure;Samples;Min_cycle;Max_cycle;Signal;HPM_P1;HPM_P2
2021/12/29 00:02:24;;;;;;;0.70;0.60;;;18.50;36.30;;;;;;5068628;28;20487;-66
2021/12/29 00:04:50;;;;;;;0.60;0.60;;;18.50;36.30;;;;;;5072230;28;20478;-65
2021/12/29 00:07:16;;;;;;;0.70;0.60;;;18.50;36.30;;;;;;5072985;28;20593;-66
2021/12/29 00:09:41;;;;;;;0.73;0.70;;;18.50;36.30;;;;;;5073178;28;20260;-65
2021/12/29 00:12:09;;;;;;;0.80;0.80;;;18.50;36.40;;;;;;5072881;28;20217;-65
2021/12/29 00:14:35;;;;;;;0.70;0.60;;;18.50;36.40;;;;;;5073105;28;20214;-65
2021/12/29 00:17:02;;;;;;;0.70;0.70;;;18.50;36.30;;;;;;5072496;28;20454;-65
2021/12/29 00:19:27;;;;;;;0.70;0.67;;;18.50;36.30;;;;;;5073066;28;20442;-65
2021/12/29 00:21:53;;;;;;;0.60;0.60;;;18.50;36.40;;;;;;5073537;28;20442;-65
2021/12/29 00:24:19;;;;;;;0.70;0.70;;;18.50;36.30;;;;;;5072981;28;20209;-65
2021/12/29 00:26:45;;;;;;;0.70;0.70;;;18.40;36.30;;;;;;5072944;28;20267;-65
2021/12/29 00:29:10;;;;;;;0.70;0.60;;;18.50;36.30;;;;;;5072654;28;20677;-65
2021/12/29 00:31:36;;;;;;;0.80;0.63;;;18.50;36.30;;;;;;5054793;28;20450;-65
2021/12/29 00:34:02;;;;;;;0.70;0.60;;;18.50;36.30;;;;;;5072966;28;20598;-65
2021/12/29 00:36:28;;;;;;;0.60;0.60;;;18.50;36.30;;;;;;5054393;28;20229;-65
2021/12/29 00:38:53;;;;;;;1.00;0.80;;;18.50;36.40;;;;;;5072773;28;20217;-65
2021/12/29 00:41:20;;;;;;;0.80;0.70;;;18.50;36.40;;;;;;5071249;28;20224;-65
2021/12/29 00:43:47;;;;;;;0.70;0.70;;;18.50;36.40;;;;;;5072374;28;20205;-67
2021/12/29 00:46:14;;;;;;;0.80;0.60;;;18.50;36.40;;;;;;5072170;28;21113;-66
2021/12/29 00:48:43;;;;;;;0.60;0.50;;;18.50;36.40;;;;;;5072637;28;20425;-66
2021/12/29 00:51:09;;;;;;;0.90;0.70;;;18.50;37.20;;;;;;5070571;28;20474;-65
2021/12/29 00:53:35;;;;;;;0.60;0.60;;;18.50;36.40;;;;;;5072342;28;20448;-65
2021/12/29 00:56:01;;;;;;;0.80;0.80;;;18.40;36.30;;;;;;5040723;28;20908;-65
2021/12/29 00:58:29;;;;;;;0.70;0.70;;;18.40;36.30;;;;;;5072402;28;20239;-68
2021/12/29 01:00:55;;;;;;;0.60;0.60;;;18.40;36.30;;;;;;5072109;28;20786;-67
2021/12/29 01:03:21;;;;;;;0.70;0.63;;;18.50;36.40;;;;;;5072374;28;20459;-67
2021/12/29 01:05:47;;;;;;;0.80;0.70;;;18.50;36.40;;;;;;5072151;28;20534;-67
2021/12/29 01:08:13;;;;;;;0.70;0.70;;;18.40;36.30;;;;;;5071973;28;20541;-67
2021/12/29 01:10:41;;;;;;;0.70;0.70;;;18.50;36.40;;;;;;5071085;28;20271;-67
2021/12/29 01:13:09;;;;;;;0.70;0.70;;;18.40;36.30;;;;;;5071941;28;20210;-67
2021/12/29 01:15:56;;;;;;;0.80;0.60;;;18.50;36.40;;;;;;5071474;28;20415;-67
2021/12/29 01:18:22;;;;;;;0.80;0.80;;;18.50;36.50;;;;;;5070478;28;20503;-65
2021/12/29 01:20:47;;;;;;;0.70;0.60;;;18.50;36.40;;;;;;5071845;28;20413;-65
2021/12/29 01:23:13;;;;;;;0.70;0.70;;;18.40;36.30;;;;;;5071788;28;20421;-67
2021/12/29 01:25:38;;;;;;;0.70;0.70;;;18.40;36.30;;;;;;5071765;28;20225;-67
2021/12/29 01:28:04;;;;;;;0.70;0.70;;;18.50;36.40;;;;;;5071660;28;20217;-67
2021/12/29 01:30:30;;;;;;;0.60;0.60;;;18.50;36.40;;;;;;5071716;28;20257;-67
2021/12/29 01:32:56;;;;;;;0.70;0.70;;;18.50;36.40;;;;;;5071598;28;20222;-65
2021/12/29 01:35:21;;;;;;;0.70;0.60;;;18.40;36.30;;;;;;5072237;28;20446;-67
2021/12/29 01:37:47;;;;;;;0.60;0.57;;;18.40;36.30;;;;;;5071483;28;20309;-67
2021/12/29 01:40:16;;;;;;;0.80;0.70;;;18.40;36.30;;;;;;5071039;28;20305;-68
2021/12/29 01:42:42;;;;;;;0.70;0.60;;;18.50;36.40;;;;;;5071174;28;20225;-67
2021/12/29 01:45:09;;;;;;;0.90;0.90;;;18.40;36.40;;;;;;5071391;28;20445;-67
2021/12/29 01:47:35;;;;;;;0.73;0.60;;;18.50;36.40;;;;;;5071548;28;20283;-65
2021/12/29 01:50:03;;;;;;;0.60;0.60;;;18.40;36.40;;;;;;5069198;28;20858;-64
2021/12/29 01:52:35;;;;;;;0.80;0.70;;;18.40;36.30;;;;;;5071137;28;20217;-67
2021/12/29 01:55:01;;;;;;;0.80;0.80;;;18.40;36.40;;;;;;5068251;28;20433;-67
2021/12/29 01:57:26;;;;;;;0.80;0.63;;;18.50;36.40;;;;;;5052681;28;20492;-67
2021/12/29 01:59:52;;;;;;;0.70;0.60;;;18.50;36.40;;;;;;5071412;28;20215;-67
2021/12/29 02:02:19;;;;;;;0.80;0.70;;;18.40;36.30;;;;;;5071160;28;20214;-65
2021/12/29 02:04:46;;;;;;;0.70;0.70;;;18.40;36.30;;;;;;5070977;28;20241;-67
2021/12/29 02:07:12;;;;;;;0.90;0.90;;;18.40;36.30;;;;;;5070825;28;20444;-67
2021/12/29 02:09:39;;;;;;;0.80;0.70;;;18.50;36.40;;;;;;5071024;28;20413;-65
2021/12/29 02:12:05;;;;;;;0.80;0.77;;;18.40;36.40;;;;;;5070652;28;20429;-68
2021/12/29 02:14:32;;;;;;;0.70;0.60;;;18.40;36.30;;;;;;5071016;28;21240;-68
2021/12/29 02:16:58;;;;;;;0.70;0.70;;;18.40;36.30;;;;;;5070727;28;20978;-68
2021/12/29 02:19:25;;;;;;;0.70;0.70;;;18.40;36.40;;;;;;5070780;28;20953;-67
2021/12/29 02:22:08;;;;;;;0.70;0.70;;;18.40;36.30;;;;;;5071210;28;20447;-67
2021/12/29 02:24:40;;;;;;;0.80;0.70;;;18.40;36.30;;;;;;5069900;28;20446;-67
2021/12/29 02:27:07;;;;;;;0.80;0.80;;;18.40;36.30;;;;;;5068647;28;21008;-68
2021/12/29 02:29:34;;;;;;;0.70;0.70;;;18.50;36.50;;;;;;5052241;28;20538;-67
2021/12/29 02:32:01;;;;;;;0.60;0.60;;;18.40;36.40;;;;;;5069874;28;21008;-67
2021/12/29 02:34:27;;;;;;;0.73;0.67;;;18.40;36.40;;;;;;5070671;28;20439;-67
2021/12/29 02:36:54;;;;;;;0.70;0.70;;;18.40;36.40;;;;;;5070961;28;20797;-67
2021/12/29 02:39:22;;;;;;;1.33;0.70;;;18.40;36.40;;;;;;5070800;28;20218;-68
2021/12/29 02:41:53;;;;;;;0.60;0.60;;;18.40;36.30;;;;;;5070555;28;20439;-67
2021/12/29 02:44:25;;;;;;;0.80;0.77;;;18.50;36.50;;;;;;5067261;28;20542;-67
2021/12/29 02:46:52;;;;;;;0.80;0.80;;;18.40;36.40;;;;;;5070531;28;20541;-66
2021/12/29 02:49:18;;;;;;;1.10;0.80;;;18.40;36.40;;;;;;5069741;28;20546;-66
2021/12/29 02:51:43;;;;;;;0.70;0.70;;;18.50;36.50;;;;;;5070072;28;20442;-66
2021/12/29 02:54:09;;;;;;;0.70;0.60;;;18.40;36.50;;;;;;5069449;28;20449;-66
2021/12/29 02:56:35;;;;;;;0.80;0.80;;;18.40;36.50;;;;;;5069871;28;20217;-66
2021/12/29 02:59:02;;;;;;;0.90;0.70;;;18.40;36.50;;;;;;5067062;28;20221;-66
2021/12/29 03:01:29;;;;;;;1.00;0.90;;;18.40;36.50;;;;;;5069423;28;20256;-66
2021/12/29 03:03:56;;;;;;;0.80;0.80;;;18.40;36.50;;;;;;5069695;28;20933;-66
2021/12/29 03:06:23;;;;;;;0.80;0.80;;;18.40;36.50;;;;;;5069929;28;20454;-66
2021/12/29 03:08:48;;;;;;;0.80;0.80;;;18.50;36.50;;;;;;5051803;28;20439;-66
2021/12/29 03:11:14;;;;;;;0.80;0.80;;;18.40;36.40;;;;;;5069484;28;20484;-66
2021/12/29 03:13:41;;;;;;;0.70;0.70;;;18.40;36.50;;;;;;5069734;28;20673;-66
2021/12/29 03:16:07;;;;;;;0.90;0.70;;;18.40;36.50;;;;;;5051859;28;20612;-66
2021/12/29 03:18:33;;;;;;;0.70;0.70;;;18.40;36.50;;;;;;5069717;28;21022;-66
2021/12/29 03:20:59;;;;;;;0.70;0.70;;;18.40;36.50;;;;;;5069613;28;20525;-66
2021/12/29 03:23:25;;;;;;;0.70;0.60;;;18.40;36.50;;;;;;5069823;28;20314;-66
2021/12/29 03:25:51;;;;;;;0.70;0.70;;;18.40;36.50;;;;;;5052058;28;20522;-66
2021/12/29 03:28:20;;;;;;;0.73;0.73;;;18.40;36.50;;;;;;5069453;28;20218;-66
2021/12/29 03:30:50;;;;;;;0.70;0.70;;;18.40;36.50;;;;;;5069480;28;20840;-66
2021/12/29 03:33:17;;;;;;;0.67;0.63;;;18.40;36.50;;;;;;5068000;28;20442;-66
2021/12/29 03:35:52;;;;;;;0.70;0.60;;;18.40;36.50;;;;;;5067479;28;20439;-66
2021/12/29 03:38:23;;;;;;;0.80;0.80;;;18.40;36.60;;;;;;5065924;28;20526;-66
2021/12/29 03:40:50;;;;;;;0.80;0.80;;;18.50;36.60;;;;;;5069741;28;20862;-66
2021/12/29 03:43:16;;;;;;;0.70;0.70;;;18.40;36.60;;;;;;5069502;28;20405;-66
2021/12/29 03:45:45;;;;;;;0.70;0.60;;;18.40;36.60;;;;;;5069755;28;20453;-66
2021/12/29 03:48:11;;;;;;;0.80;0.80;;;18.40;37.30;;;;;;5069401;28;20454;-66
2021/12/29 03:50:37;;;;;;;0.93;0.90;;;18.50;36.70;;;;;;5066702;28;20512;-66
2021/12/29 03:53:03;;;;;;;0.60;0.60;;;18.50;36.60;;;;;;5069075;28;20465;-66
2021/12/29 03:55:29;;;;;;;0.70;0.70;;;18.40;36.50;;;;;;5069323;28;20431;-66
2021/12/29 03:57:55;;;;;;;0.80;0.80;;;18.40;36.60;;;;;;5069075;28;20428;-66
2021/12/29 04:00:21;;;;;;;0.70;0.70;;;18.40;36.60;;;;;;5069514;28;20222;-66
2021/12/29 04:02:48;;;;;;;0.70;0.67;;;18.50;36.60;;;;;;5069158;28;20238;-66
2021/12/29 04:05:16;;;;;;;0.70;0.60;;;18.40;36.60;;;;;;5069212;28;20662;-66
2021/12/29 04:07:42;;;;;;;0.80;0.80;;;18.40;36.60;;;;;;5068950;28;20461;-66
2021/12/29 04:10:10;;;;;;;0.80;0.80;;;18.40;36.60;;;;;;5069128;28;20456;-66
2021/12/29 04:12:39;;;;;;;0.80;0.80;;;18.50;36.60;;;;;;5067838;28;20670;-66
2021/12/29 04:15:05;;;;;;;0.80;0.80;;;18.40;36.60;;;;;;5069061;28;20425;-66
2021/12/29 04:17:37;;;;;;;0.70;0.70;;;18.40;36.60;;;;;;5069125;28;20469;-66
2021/12/29 04:22:57;;;;;;;0.73;0.73;;;18.40;36.60;;;;;;5068410;28;20557;-66
2021/12/29 04:25:24;;;;;;;0.80;0.60;;;18.50;36.60;;;;;;5068491;28;20621;-66
2021/12/29 04:27:54;;;;;;;0.80;0.80;;;18.40;36.60;;;;;;5068350;28;20471;-66
2021/12/29 04:30:21;;;;;;;0.80;0.70;;;18.40;36.60;;;;;;5068985;28;20405;-66
2021/12/29 04:32:47;;;;;;;0.70;0.70;;;18.50;36.60;;;;;;5069064;28;20434;-66
2021/12/29 04:35:13;;;;;;;0.80;0.80;;;18.40;36.60;;;;;;5069066;28;20446;-66
2021/12/29 04:37:39;;;;;;;0.80;0.80;;;18.40;36.60;;;;;;5069033;28;20450;-66
2021/12/29 04:40:07;;;;;;;0.70;0.70;;;18.40;36.60;;;;;;5068861;28;20214;-66
2021/12/29 04:42:33;;;;;;;0.70;0.70;;;18.50;36.70;;;;;;5067156;28;20216;-66
2021/12/29 04:44:58;;;;;;;0.70;0.70;;;18.40;36.60;;;;;;5068657;28;20417;-66
2021/12/29 04:47:29;;;;;;;0.77;0.70;;;18.40;36.60;;;;;;5068731;28;20737;-66
2021/12/29 04:49:57;;;;;;;0.70;0.70;;;18.40;36.60;;;;;;5051568;28;20218;-66
2021/12/29 04:52:22;;;;;;;0.80;0.73;;;18.40;36.60;;;;;;5054518;28;20464;-66
2021/12/29 04:54:48;;;;;;;0.70;0.70;;;18.40;36.60;;;;;;5072600;28;20480;-66
2021/12/29 04:57:15;;;;;;;0.80;0.80;;;18.40;37.00;;;;;;5072291;28;20549;-66
2021/12/29 04:59:41;;;;;;;0.70;0.70;;;18.40;36.60;;;;;;5069280;28;20673;-66
2021/12/29 05:02:07;;;;;;;0.70;0.70;;;18.40;36.70;;;;;;5071874;28;20469;-66
2021/12/29 05:04:34;;;;;;;0.90;0.80;;;18.50;36.70;;;;;;5071977;28;20549;-66
2021/12/29 05:09:46;;;;;;;0.80;0.80;;;18.40;36.60;;;;;;5072463;28;20493;-66
2021/12/29 05:12:12;;;;;;;0.70;0.70;;;18.40;36.60;;;;;;5071838;28;20504;-66
2021/12/29 05:14:38;;;;;;;0.70;0.70;;;18.40;36.60;;;;;;5072012;28;20288;-66
2021/12/29 05:17:05;;;;;;;1.00;1.00;;;18.40;36.60;;;;;;5071947;28;20233;-66
2021/12/29 05:19:32;;;;;;;0.70;0.70;;;18.40;36.70;;;;;;5071848;28;20626;-66
2021/12/29 05:21:58;;;;;;;0.70;0.70;;;18.40;36.60;;;;;;5053910;28;20428;-66
2021/12/29 05:24:24;;;;;;;0.90;0.70;;;18.40;36.60;;;;;;5071865;28;20469;-66
2021/12/29 05:26:50;;;;;;;0.90;0.80;;;18.40;36.70;;;;;;5072035;28;20238;-66
2021/12/29 05:29:15;;;;;;;0.80;0.80;;;18.40;36.70;;;;;;5071706;28;20305;-66
2021/12/29 05:31:41;;;;;;;0.97;0.87;;;18.40;36.60;;;;;;5071808;28;20317;-66
2021/12/29 05:34:07;;;;;;;0.70;0.70;;;18.40;36.60;;;;;;5069126;28;20217;-66
2021/12/29 05:36:33;;;;;;;1.17;0.83;;;18.40;36.70;;;;;;5071690;28;20623;-66
2021/12/29 05:38:58;;;;;;;0.80;0.80;;;18.40;36.70;;;;;;5071658;28;20686;-66
2021/12/29 05:41:24;;;;;;;0.90;0.70;;;18.40;36.70;;;;;;5071465;28;20472;-66
2021/12/29 05:43:50;;;;;;;0.70;0.70;;;18.40;36.70;;;;;;5071996;28;20310;-66
2021/12/29 05:46:17;;;;;;;0.80;0.70;;;18.40;36.70;;;;;;5071116;28;20279;-66
2021/12/29 05:48:43;;;;;;;0.80;0.80;;;18.40;36.70;;;;;;5071687;28;20225;-66
2021/12/29 05:51:12;;;;;;;1.60;0.80;;;18.40;36.70;;;;;;5069672;28;21235;-66
2021/12/29 05:53:39;;;;;;;0.70;0.70;;;18.40;36.70;;;;;;5068054;28;20523;-66
2021/12/29 05:56:05;;;;;;;0.80;0.80;;;18.40;36.70;;;;;;5071010;28;20426;-66
2021/12/29 05:58:30;;;;;;;0.70;0.70;;;18.40;36.70;;;;;;5071245;28;20455;-66
2021/12/29 06:00:56;;;;;;;0.80;0.80;;;18.40;36.70;;;;;;5070374;28;20953;-66
2021/12/29 06:03:22;;;;;;;0.70;0.70;;;18.40;36.70;;;;;;5070898;28;20234;-66
2021/12/29 06:05:47;;;;;;;0.70;0.70;;;18.40;36.70;;;;;;5070961;28;20666;-66
2021/12/29 06:08:13;;;;;;;0.70;0.70;;;18.40;36.70;;;;;;5070761;28;20721;-66
2021/12/29 06:10:39;;;;;;;0.80;0.80;;;18.40;36.70;;;;;;5070782;28;20351;-66
2021/12/29 06:13:04;;;;;;;0.80;0.80;;;18.40;36.70;;;;;;5070828;28;20259;-66
2021/12/29 06:15:30;;;;;;;0.80;0.70;;;18.40;36.70;;;;;;5071047;28;20221;-66
2021/12/29 06:17:56;;;;;;;0.70;0.60;;;18.40;36.70;;;;;;5052886;28;20229;-66
2021/12/29 06:20:21;;;;;;;0.77;0.77;;;18.40;36.70;;;;;;5071193;28;20734;-66
2021/12/29 06:22:47;;;;;;;1.07;0.80;;;18.40;36.70;;;;;;5070663;28;20642;-66
2021/12/29 06:25:16;;;;;;;0.70;0.70;;;18.40;36.70;;;;;;5067112;28;26322;-66
2021/12/29 06:27:42;;;;;;;0.70;0.70;;;18.40;36.70;;;;;;5070189;28;20329;-66
2021/12/29 06:30:10;;;;;;;0.70;0.70;;;18.40;36.70;;;;;;5070295;28;20517;-66
2021/12/29 06:32:38;;;;;;;0.70;0.70;;;18.40;36.70;;;;;;5070517;28;20217;-66
2021/12/29 06:35:05;;;;;;;0.70;0.60;;;18.40;36.70;;;;;;5069790;28;20500;-66
2021/12/29 06:37:30;;;;;;;0.87;0.80;;;18.40;36.70;;;;;;5070304;28;20425;-66
2021/12/29 06:39:56;;;;;;;0.90;0.90;;;18.40;36.70;;;;;;5070562;28;20541;-66
2021/12/29 06:42:23;;;;;;;0.70;0.70;;;18.40;36.70;;;;;;5071583;28;20217;-66
2021/12/29 06:44:48;;;;;;;0.73;0.73;;;18.40;36.70;;;;;;5073131;28;20634;-66
2021/12/29 06:47:14;;;;;;;0.77;0.73;;;18.40;36.70;;;;;;5068407;28;20429;-66
2021/12/29 06:49:40;;;;;;;0.70;0.70;;;18.40;36.70;;;;;;5070746;28;20576;-66
2021/12/29 06:52:06;;;;;;;0.70;0.70;;;18.40;36.80;;;;;;5070088;28;20932;-66
2021/12/29 06:54:33;;;;;;;0.80;0.80;;;18.40;36.80;;;;;;5069931;28;20213;-66
2021/12/29 06:56:59;;;;;;;0.83;0.80;;;18.40;36.70;;;;;;5069701;28;20874;-66
2021/12/29 06:59:24;;;;;;;0.80;0.70;;;18.40;36.80;;;;;;5069957;28;20521;-66
2021/12/29 07:01:50;;;;;;;0.80;0.70;;;18.40;36.80;;;;;;5069763;28;20241;-66
2021/12/29 07:04:16;;;;;;;0.80;0.70;;;18.40;36.70;;;;;;5069391;28;20682;-66
2021/12/29 07:06:41;;;;;;;0.77;0.77;;;18.40;36.80;;;;;;5069733;28;20249;-66
2021/12/29 07:09:07;;;;;;;0.70;0.70;;;18.40;36.80;;;;;;5070201;28;20798;-66
2021/12/29 07:11:34;;;;;;;0.70;0.70;;;18.40;36.80;;;;;;5069853;28;20218;-66
2021/12/29 07:14:03;;;;;;;1.13;0.80;;;18.40;36.80;;;;;;5069125;28;20232;-66
2021/12/29 07:16:29;;;;;;;0.70;0.70;;;18.40;37.60;;;;;;5069701;28;20440;-66
2021/12/29 07:18:54;;;;;;;0.90;0.77;;;18.40;36.80;;;;;;5069710;28;20443;-66
2021/12/29 07:21:20;;;;;;;0.80;0.80;;;18.40;36.80;;;;;;5069686;28;20439;-66
2021/12/29 07:23:46;;;;;;;0.70;0.70;;;18.40;36.80;;;;;;5069723;28;20225;-66
2021/12/29 07:26:11;;;;;;;0.80;0.70;;;18.40;36.80;;;;;;5069596;28;20220;-66
2021/12/29 07:28:38;;;;;;;0.70;0.70;;;18.40;36.80;;;;;;5069996;28;20215;-66
2021/12/29 07:31:04;;;;;;;0.80;0.77;;;18.40;36.80;;;;;;5069257;28;20228;-66
2021/12/29 07:33:30;;;;;;;0.80;0.80;;;18.40;36.80;;;;;;5069681;28;20447;-66
2021/12/29 07:35:56;;;;;;;0.80;0.80;;;18.40;36.70;;;;;;5069499;28;20210;-66
2021/12/29 07:38:24;;;;;;;0.70;0.70;;;18.40;36.80;;;;;;5069348;28;20218;-66
2021/12/29 07:40:50;;;;;;;0.90;0.90;;;18.40;36.80;;;;;;5051438;28;20379;-66
2021/12/29 07:43:16;;;;;;;0.70;0.70;;;18.40;36.80;;;;;;5069336;28;20983;-66
2021/12/29 07:45:42;;;;;;;0.70;0.60;;;18.40;36.80;;;;;;5069435;28;20214;-66
2021/12/29 07:48:09;;;;;;;0.93;0.83;;;18.40;36.80;;;;;;5069554;28;20275;-66
2021/12/29 07:50:36;;;;;;;0.80;0.80;;;18.40;36.80;;;;;;5069243;28;20453;-66
2021/12/29 07:53:03;;;;;;;0.90;0.90;;;18.40;36.90;;;;;;5067691;28;20457;-66
2021/12/29 07:55:29;;;;;;;0.70;0.70;;;18.40;36.80;;;;;;5069432;28;20449;-66
2021/12/29 07:57:55;;;;;;;0.80;0.77;;;18.40;36.80;;;;;;5069135;28;20413;-66
2021/12/29 08:00:20;;;;;;;0.70;0.70;;;18.40;36.90;;;;;;5069390;28;20213;-67
2021/12/29 08:02:47;;;;;;;0.83;0.83;;;18.40;36.90;;;;;;5069137;28;20295;-66
2021/12/29 08:05:13;;;;;;;0.90;0.90;;;18.40;36.90;;;;;;5069045;28;20221;-66
2021/12/29 08:07:39;;;;;;;0.80;0.70;;;18.40;36.90;;;;;;5069640;28;20461;-66
2021/12/29 08:10:06;;;;;;;0.77;0.70;;;18.40;36.90;;;;;;5069122;28;20444;-66
2021/12/29 08:12:32;;;;;;;1.00;0.90;;;18.40;36.90;;;;;;5069155;28;20229;-66
2021/12/29 08:14:57;;;;;;;0.80;0.80;;;18.40;36.90;;;;;;5069020;28;20496;-66
2021/12/29 08:17:23;;;;;;;0.70;0.70;;;18.40;36.90;;;;;;5069110;28;20451;-66
2021/12/29 08:19:50;;;;;;;0.80;0.80;;;18.40;36.80;;;;;;5069002;28;20663;-66
2021/12/29 08:22:17;;;;;;;0.90;0.80;;;18.40;36.80;;;;;;5066297;28;20205;-66
2021/12/29 08:24:43;;;;;;;0.70;0.60;;;18.40;36.90;;;;;;5069924;28;20478;-66
2021/12/29 08:27:10;;;;;;;0.80;0.80;;;18.40;36.90;;;;;;5073232;28;20433;-66
2021/12/29 08:29:35;;;;;;;0.83;0.70;;;18.40;36.90;;;;;;5072783;28;20441;-66
2021/12/29 08:32:01;;;;;;;0.90;0.80;;;18.40;36.90;;;;;;5054967;28;20425;-66
2021/12/29 08:34:27;;;;;;;0.80;0.80;;;18.40;36.90;;;;;;5072971;28;20213;-66
2021/12/29 08:36:53;;;;;;;0.77;0.77;;;18.40;36.90;;;;;;5072634;28;20222;-66
2021/12/29 08:39:18;;;;;;;0.83;0.83;;;18.40;36.90;;;;;;5072684;28;20304;-66
2021/12/29 08:41:48;;;;;;;0.80;0.80;;;18.40;36.90;;;;;;5072651;28;20803;-66
2021/12/29 08:44:14;;;;;;;0.80;0.80;;;18.40;36.90;;;;;;5071793;28;20654;-66
2021/12/29 08:46:40;;;;;;;1.63;0.83;;;18.40;36.90;;;;;;5072958;28;20479;-66
2021/12/29 08:49:06;;;;;;;0.77;0.77;;;18.40;36.90;;;;;;5072612;28;20453;-66
2021/12/29 08:51:32;;;;;;;1.33;0.70;;;18.40;36.90;;;;;;5072506;28;20423;-66
2021/12/29 08:53:59;;;;;;;0.80;0.73;;;18.40;36.90;;;;;;5072368;28;20432;-66
2021/12/29 08:56:26;;;;;;;1.53;0.77;;;18.40;36.90;;;;;;5072204;28;20647;-66
2021/12/29 08:58:53;;;;;;;1.00;0.90;;;18.40;36.90;;;;;;5054428;28;20610;-66
2021/12/29 09:01:21;;;;;;;0.97;0.80;;;18.40;36.90;;;;;;5072311;28;20425;-66
2021/12/29 09:03:48;;;;;;;0.90;0.90;;;18.40;36.90;;;;;;5071199;28;20437;-66
2021/12/29 09:06:14;;;;;;;0.77;0.77;;;18.40;36.90;;;;;;5071973;28;20425;-66
2021/12/29 09:08:41;;;;;;;0.63;0.60;;;18.40;36.90;;;;;;5072673;28;20474;-66
2021/12/29 09:11:07;;;;;;;0.80;0.80;;;18.40;36.90;;;;;;5072098;28;20409;-66
2021/12/29 09:13:33;;;;;;;0.90;0.90;;;18.40;36.90;;;;;;5071817;28;20424;-66
2021/12/29 09:15:59;;;;;;;1.20;1.10;;;18.40;37.70;;;;;;5071842;28;20447;-66
2021/12/29 09:18:26;;;;;;;0.80;0.70;;;18.40;36.90;;;;;;5071968;28;20206;-66
2021/12/29 09:20:52;;;;;;;0.70;0.70;;;18.40;36.90;;;;;;5071575;28;20613;-66
2021/12/29 09:23:19;;;;;;;0.73;0.70;;;18.40;36.90;;;;;;5071887;28;20447;-66
2021/12/29 09:25:47;;;;;;;0.63;0.60;;;18.40;36.90;;;;;;5071825;28;20476;-66
2021/12/29 09:28:15;;;;;;;0.70;0.70;;;18.40;36.90;;;;;;5071564;28;20554;-66
2021/12/29 09:30:43;;;;;;;0.80;0.70;;;18.40;36.90;;;;;;5072167;28;20421;-66
2021/12/29 09:33:09;;;;;;;0.77;0.73;;;18.40;36.90;;;;;;5068529;28;20410;-66
2021/12/29 09:35:36;;;;;;;0.70;0.70;;;18.40;36.90;;;;;;5071473;28;20402;-66
2021/12/29 09:38:04;;;;;;;0.70;0.70;;;18.40;36.90;;;;;;5071385;28;20447;-66
2021/12/29 09:40:30;;;;;;;0.70;0.70;;;18.40;37.00;;;;;;5071583;28;20427;-66
2021/12/29 09:42:56;;;;;;;0.70;0.70;;;18.40;37.00;;;;;;5071542;28;20426;-66
2021/12/29 09:45:22;;;;;;;1.57;1.17;;;18.40;36.90;;;;;;5071631;28;20917;-66
2021/12/29 09:47:48;;;;;;;0.90;0.80;;;18.40;36.90;;;;;;5071066;28;20232;-66
2021/12/29 09:50:17;;;;;;;0.80;0.80;;;18.40;36.90;;;;;;5071027;28;20931;-66
2021/12/29 09:52:43;;;;;;;0.70;0.70;;;18.40;36.90;;;;;;5071230;28;20418;-66
2021/12/29 09:55:12;;;;;;;0.80;0.80;;;18.40;36.90;;;;;;5071761;28;20418;-66
2021/12/29 09:57:44;;;;;;;0.73;0.70;;;18.40;36.90;;;;;;5071409;28;20300;-66
2021/12/29 10:00:19;;;;;;;0.80;0.80;;;18.40;36.90;;;;;;5068502;28;20428;-66
2021/12/29 10:02:45;;;;;;;0.80;0.80;;;18.40;36.90;;;;;;5070689;28;20432;-66
2021/12/29 10:05:11;;;;;;;1.10;0.80;;;18.40;36.90;;;;;;5071470;28;20447;-66
2021/12/29 10:07:36;;;;;;;0.80;0.80;;;18.30;36.80;;;;;;5071168;28;20453;-66
2021/12/29 10:10:18;;;;;;;0.80;0.80;;;18.40;37.00;;;;;;5070018;28;20218;-66
2021/12/29 10:12:46;;;;;;;0.90;0.80;;;18.40;36.90;;;;;;5070885;28;20222;-66
2021/12/29 10:15:12;;;;;;;0.70;0.70;;;18.30;36.80;;;;;;5070955;28;20761;-66
2021/12/29 10:17:37;;;;;;;0.80;0.80;;;18.40;37.00;;;;;;5071401;28;20417;-66
2021/12/29 10:20:08;;;;;;;1.00;0.90;;;18.30;36.90;;;;;;5070786;28;20553;-66
2021/12/29 10:22:33;;;;;;;0.80;0.70;;;18.30;36.90;;;;;;5068886;28;20217;-66
2021/12/29 10:25:15;;;;;;;0.80;0.70;;;18.40;37.00;;;;;;5070734;28;20484;-66
2021/12/29 10:27:41;;;;;;;0.70;0.70;;;18.40;37.00;;;;;;5068385;28;20674;-66
2021/12/29 10:30:22;;;;;;;0.70;0.70;;;18.40;37.00;;;;;;5070695;28;20409;-66
2021/12/29 10:32:48;;;;;;;1.00;0.90;;;18.40;37.00;;;;;;5068265;28;20413;-66
2021/12/29 10:35:26;;;;;;;0.70;0.70;;;18.40;37.00;;;;;;5070653;28;20469;-66
2021/12/29 10:37:53;;;;;;;0.70;0.70;;;18.40;37.00;;;;;;5070097;28;20451;-66
2021/12/29 10:40:31;;;;;;;0.70;0.70;;;18.30;36.90;;;;;;5069478;28;20417;-66
2021/12/29 10:42:58;;;;;;;1.10;1.00;;;18.30;36.90;;;;;;5070251;28;20446;-66
2021/12/29 10:45:32;;;;;;;0.70;0.70;;;18.30;36.80;;;;;;5069410;28;20909;-66
2021/12/29 10:47:58;;;;;;;0.90;0.80;;;18.30;36.70;;;;;;5068830;28;20823;-66
2021/12/29 10:50:26;;;;;;;0.70;0.60;;;18.30;36.80;;;;;;5070054;28;20914;-66
2021/12/29 10:52:55;;;;;;;0.70;0.70;;;18.30;36.80;;;;;;5051812;28;20503;-66
2021/12/29 10:55:30;;;;;;;0.80;0.70;;;18.30;36.80;;;;;;5069798;28;20424;-66
2021/12/29 10:58:04;;;;;;;0.80;0.80;;;18.30;36.80;;;;;;5068889;28;20466;-67
2021/12/29 11:00:30;;;;;;;0.80;0.80;;;18.40;37.00;;;;;;5040715;28;20520;-66
2021/12/29 11:03:13;;;;;;;0.73;0.73;;;18.40;36.90;;;;;;5069653;28;21085;-66
2021/12/29 11:05:41;;;;;;;0.80;0.80;;;18.30;36.80;;;;;;5052357;28;20663;-66
2021/12/29 11:08:09;;;;;;;1.10;0.80;;;18.30;36.90;;;;;;5069722;28;20518;-66
2021/12/29 11:10:35;;;;;;;0.70;0.70;;;18.30;36.90;;;;;;5066508;28;20498;-66
2021/12/29 11:13:01;;;;;;;1.00;0.80;;;18.40;37.00;;;;;;5069234;28;20913;-66
2021/12/29 11:15:31;;;;;;;0.67;0.60;;;18.30;37.70;;;;;;5069800;28;20457;-66
2021/12/29 11:18:06;;;;;;;0.80;0.70;;;18.30;37.00;;;;;;5069651;28;20225;-66
2021/12/29 11:20:34;;;;;;;1.17;1.07;;;18.30;37.00;;;;;;5069382;28;20445;-66
2021/12/29 11:23:11;;;;;;;0.80;0.70;;;18.40;37.10;;;;;;5069640;28;20424;-66
2021/12/29 11:25:39;;;;;;;0.87;0.60;;;18.30;36.90;;;;;;5068607;28;20421;-66
2021/12/29 11:28:07;;;;;;;0.80;0.80;;;18.30;36.90;;;;;;5067009;28;20441;-66
2021/12/29 11:30:34;;;;;;;1.00;0.90;;;18.30;37.00;;;;;;5069358;28;20775;-66
2021/12/29 11:33:09;;;;;;;0.70;0.70;;;18.30;37.20;;;;;;5069290;28;20454;-66
2021/12/29 11:35:41;;;;;;;0.80;0.80;;;18.40;37.10;;;;;;5069715;28;20442;-66
2021/12/29 11:38:07;;;;;;;1.00;0.90;;;18.40;37.00;;;;;;5069260;28;20496;-66
2021/12/29 11:40:35;;;;;;;0.70;0.60;;;18.30;37.00;;;;;;5069286;28;20443;-66
2021/12/29 11:43:01;;;;;;;2.20;0.80;;;18.30;37.00;;;;;;5050575;28;20972;-66
2021/12/29 11:45:27;;;;;;;1.00;0.90;;;18.30;37.00;;;;;;5069284;28;20418;-66
2021/12/29 11:47:53;;;;;;;0.80;0.80;;;18.30;37.00;;;;;;5051258;28;20291;-66
2021/12/29 11:50:26;;;;;;;0.80;0.80;;;18.40;37.10;;;;;;5069227;28;20424;-66
2021/12/29 11:53:08;;;;;;;0.93;0.80;;;18.30;37.00;;;;;;5069223;28;20467;-66
2021/12/29 11:55:40;;;;;;;0.80;0.70;;;18.30;37.00;;;;;;5067262;28;20806;-66
2021/12/29 11:58:23;;;;;;;0.80;0.73;;;18.30;37.00;;;;;;5069415;28;20508;-67
2021/12/29 12:01:05;;;;;;;0.80;0.80;;;18.30;37.10;;;;;;5072996;28;20926;-66
2021/12/29 12:03:41;;;;;;;0.70;0.70;;;18.30;37.00;;;;;;5072976;28;20473;-66
2021/12/29 12:06:19;;;;;;;0.90;0.87;;;18.30;37.00;;;;;;5073303;28;20423;-66
2021/12/29 12:08:44;;;;;;;0.90;0.90;;;18.30;37.10;;;;;;5073004;28;20425;-66
2021/12/29 12:11:27;;;;;;;0.80;0.70;;;18.30;37.00;;;;;;5073675;28;20493;-66
2021/12/29 12:13:53;;;;;;;0.80;0.77;;;18.30;37.00;;;;;;5072124;28;20624;-66
2021/12/29 12:16:20;;;;;;;0.77;0.70;;;18.30;37.00;;;;;;5072993;28;20417;-66
2021/12/29 12:18:53;;;;;;;1.00;0.90;;;18.30;37.00;;;;;;5073060;28;20305;-66
2021/12/29 12:21:25;;;;;;;0.90;0.80;;;18.30;37.00;;;;;;5073165;28;20472;-66
2021/12/29 12:23:53;;;;;;;0.73;0.73;;;18.30;37.10;;;;;;5073039;28;20973;-66
2021/12/29 12:26:22;;;;;;;0.80;0.80;;;18.30;37.10;;;;;;5071816;28;20446;-66
2021/12/29 12:28:52;;;;;;;0.77;0.70;;;18.30;37.10;;;;;;5072770;28;20416;-66
2021/12/29 12:31:27;;;;;;;0.80;0.73;;;18.30;37.10;;;;;;5072648;28;20442;-66
2021/12/29 12:33:54;;;;;;;0.70;0.70;;;18.30;37.10;;;;;;5072641;28;20444;-66
2021/12/29 12:36:19;;;;;;;0.90;0.83;;;18.30;37.10;;;;;;5072661;28;20412;-66
2021/12/29 12:38:47;;;;;;;0.70;0.70;;;18.30;37.10;;;;;;5072732;28;20413;-66
2021/12/29 12:41:16;;;;;;;0.70;0.70;;;18.30;37.10;;;;;;5072792;28;20213;-66
2021/12/29 12:43:58;;;;;;;1.00;0.90;;;18.30;37.10;;;;;;5072730;28;20449;-66
2021/12/29 12:46:31;;;;;;;0.93;0.83;;;18.30;37.10;;;;;;5071197;28;20794;-66
2021/12/29 12:48:57;;;;;;;0.80;0.70;;;18.30;37.10;;;;;;5071883;28;20425;-66
2021/12/29 12:51:22;;;;;;;0.87;0.87;;;18.30;37.10;;;;;;5070731;28;20485;-66
2021/12/29 12:53:48;;;;;;;1.10;1.00;;;18.30;37.10;;;;;;5054529;28;20454;-66
2021/12/29 12:56:18;;;;;;;1.03;0.90;;;18.30;37.10;;;;;;5072503;28;20213;-66